Terminal Aerodrome Forecast
Issued by NWS

Home | Current Version | Previous Version | Text Only | Print | Product List | Glossary On
Versions: 1 2 3 4 5 6 7 8 9 10 11 12 13 14 15 16 17 18 19 20 21 22 23 24 25 26 27 28 29 30 31 32 33 34 35 36 37 38 39 40 41 42
069
FTUS41 KILN 240525
TAFLUK
TAF
KLUK 240525Z 2406/2506 34004KT P6SM SCT060 OVC250
      TEMPO 2406/2407 BKN060
     FM240900 02003KT P6SM BKN100
     FM241500 06003KT P6SM BKN050
     FM241700 15004KT P6SM BKN050
     FM250000 15004KT P6SM -SHRA OVC050
      TEMPO 2501/2505 5SM -SHRA=

USA.gov is the U.S. government's official web portal to all federal, state and local government web resources and services.